McAlister, NM

10:04 AM MST on December 18, 2014 (GMT -0700)
Tucumcari Municipal | Change Station
CLOSE
Current Station
Airport
Location: Tucumcari,
Elevation: 4065 ft
Nearby Weather Stations

Elev 4065 ft 35.18 °N, 103.60 °W | Updated 3 minutes ago

Partly Cloudy
Partly Cloudy
33 °F
Feels Like 33 °F
N
0
Wind Variable Wind from North

Today
High -- | Low -- °F
--% Chance of Precip.
Yesterday
High -- | Low -- °F
Precip. -- in
6:56 AM 4:46 PM
Waning Crescent, 13% visible
Pressure 30.12 in
Visibility 3.0 miles
Clouds Overcast 200 ft
Dew Point 32 °F
Humidity 96%
Rainfall 0.00 in
Snow Depth Not available.
UV 1 out of 12
Pollen 6.80 out of 12
Air Quality Not available.
Flu Activity Not available.
SPECI KTCC 181701Z AUTO 00000KT 3SM BR OVC002 01/00 A3012 RMK AO2 T00060000

More Conditions Fewer Conditions

Pressure 30.12 in
Visibility 3.0 miles
Clouds Overcast 200 ft
Dew Point 32 °F
Humidity 96%
Rainfall 0.00 in
Snow Depth Not available.
UV 1 out of 12
Pollen 6.80 out of 12
Air Quality Not available.
Flu Activity Not available.
SPECI KTCC 181701Z AUTO 00000KT 3SM BR OVC002 01/00 A3012 RMK AO2 T00060000

More Conditions Fewer Conditions

Nowcast | as of 8:52 am MST on December 18, 2014

Dense freezing fog will continue to impact portions of Quay...far eastern San Miguel...southeast Harding and southern Union counties through the late morning hours. Areas affected by the dense fog include San Jon...Tucumcari...Logan...Nara Visa and Amistad. The dense fog will also impact Interstate 40 from Montoya to Glenrio. A light skim of frost or black ice will be on area roadways so caution is advised.

×

10-Day Weather Forecast

Almanac

Astronomy

Dec. 18, 2014 Rise Set
Actual Time
Civil Twilight
Nautical Twilight
Astronomical Twilight
Moon
Length of Visible Light
Length of Day
Tomorrow will be .
, % of the Moon is Illuminated

Today's Extremes

State Highs State Lows

Community

WunderPhotos

Upload Photos

1,778,964 photos uploaded!

WunderBlogs® & News

Nearby

Air Quality

  Air Quality AQ Index Pollutant
Not available.

Snow Depth

Station Depth Elevation

Earthquake Activity

City Distance Mag. Time & Date
Minimum magnitude displayed is 2.5.

Coastal Water Temperatures

Place Temperature

Nearby Weather Stations